createdAt,value
2023-04-16T00:01:01.145Z,70.29
2023-04-16T00:03:27.692Z,69.68
2023-04-16T00:05:54.191Z,69.79
2023-04-16T00:08:20.566Z,70.48
2023-04-16T00:10:46.926Z,70.36
2023-04-16T00:13:13.284Z,70.51
2023-04-16T00:15:41.003Z,70.48
2023-04-16T00:18:07.387Z,69.97
2023-04-16T00:20:33.735Z,71.11
2023-04-16T00:23:00.122Z,70.78
2023-04-16T00:25:26.481Z,70.79
2023-04-16T00:27:52.850Z,71.30
2023-04-16T00:30:19.447Z,70.69
2023-04-16T00:32:47.130Z,70.58
2023-04-16T00:35:13.541Z,70.61
2023-04-16T00:37:39.915Z,70.67
2023-04-16T00:40:07.533Z,70.98
2023-04-16T00:42:33.891Z,71.73
2023-04-16T00:45:00.609Z,71.80
2023-04-16T00:47:27.017Z,71.41
2023-04-16T00:49:54.801Z,72.40
2023-04-16T00:52:21.235Z,71.15
2023-04-16T00:54:47.970Z,72.02
2023-04-16T00:57:14.726Z,72.31
2023-04-16T00:59:41.844Z,71.74
2023-04-16T01:02:08.385Z,72.19
2023-04-16T01:04:35.314Z,70.56
2023-04-16T01:07:03.211Z,71.42
2023-04-16T01:09:29.536Z,72.33
2023-04-16T01:11:55.961Z,70.69
2023-04-16T01:14:22.333Z,71.75
2023-04-16T01:16:48.717Z,70.77
2023-04-16T01:19:15.067Z,72.34
2023-04-16T01:21:42.777Z,71.20
2023-04-16T01:24:09.116Z,72.33
2023-04-16T01:26:35.472Z,72.34
2023-04-16T01:29:02.700Z,71.50
2023-04-16T01:31:29.108Z,71.91
2023-04-16T01:33:55.485Z,72.06
2023-04-16T01:36:21.860Z,71.74
2023-04-16T01:38:49.949Z,71.01
2023-04-16T01:41:16.319Z,70.63
2023-04-16T01:43:42.724Z,72.17
2023-04-16T01:46:13.456Z,72.43
2023-04-16T01:48:39.884Z,71.99
2023-04-16T01:51:06.308Z,71.24
2023-04-16T01:53:32.668Z,72.77
2023-04-16T01:56:00.345Z,71.74
2023-04-16T01:58:28.487Z,71.16
2023-04-16T02:00:55.020Z,71.35
2023-04-16T02:03:21.806Z,71.57
2023-04-16T02:05:48.268Z,71.14
2023-04-16T02:08:14.654Z,72.26
2023-04-16T02:10:41.005Z,71.98
2023-04-16T02:13:08.733Z,72.63
2023-04-16T02:15:35.068Z,73.01
2023-04-16T02:18:01.535Z,71.92
2023-04-16T02:20:27.993Z,72.06
2023-04-16T02:22:54.412Z,71.71
2023-04-16T02:25:20.788Z,72.10
2023-04-16T02:27:47.139Z,71.63
2023-04-16T02:30:14.823Z,72.04
2023-04-16T02:32:41.226Z,71.42
2023-04-16T02:35:07.854Z,71.39
2023-04-16T02:37:34.210Z,70.74
2023-04-16T02:40:00.574Z,70.99
2023-04-16T02:42:26.947Z,71.52
2023-04-16T02:44:53.291Z,70.59
2023-04-16T02:47:21.002Z,70.76
2023-04-16T02:49:47.391Z,71.86
2023-04-16T02:52:15.519Z,71.12
2023-04-16T02:54:42.037Z,71.27
2023-04-16T02:57:08.430Z,70.79
2023-04-16T02:59:34.756Z,71.54
2023-04-16T03:02:01.138Z,71.28
2023-04-16T03:04:28.916Z,71.53
2023-04-16T03:06:55.295Z,71.28
2023-04-16T03:09:21.642Z,71.26
2023-04-16T03:11:48.025Z,72.08
2023-04-16T03:14:14.376Z,74.40
2023-04-16T03:16:40.733Z,73.23
2023-04-16T03:19:07.319Z,73.13
2023-04-16T03:21:35.179Z,72.59
2023-04-16T03:24:01.538Z,72.51
2023-04-16T03:26:27.946Z,72.86
2023-04-16T03:28:54.303Z,72.14
2023-04-16T03:31:20.733Z,72.16
2023-04-16T03:33:47.117Z,73.08
2023-04-16T03:36:13.502Z,72.53
2023-04-16T03:38:41.239Z,72.99
2023-04-16T03:41:07.613Z,72.49
2023-04-16T03:43:33.978Z,72.18
2023-04-16T03:46:00.429Z,73.20
2023-04-16T03:48:27.031Z,72.61
2023-04-16T03:50:53.404Z,74.03
2023-04-16T03:53:19.749Z,73.08
2023-04-16T03:55:49.722Z,71.47
2023-04-16T03:58:16.056Z,72.51
2023-04-16T04:00:42.492Z,71.36
2023-04-16T04:03:09.047Z,71.33
2023-04-16T04:05:36.736Z,72.10
2023-04-16T04:08:03.180Z,72.42
2023-04-16T04:10:32.001Z,72.51
2023-04-16T04:12:59.851Z,73.67
2023-04-16T04:15:26.660Z,71.90
2023-04-16T04:17:53.074Z,71.97
2023-04-16T04:20:20.334Z,71.30
2023-04-16T04:22:46.730Z,72.40
2023-04-16T04:25:13.442Z,72.68
2023-04-16T04:27:39.818Z,73.14
2023-04-16T04:30:08.814Z,72.18
2023-04-16T04:32:35.391Z,72.78
2023-04-16T04:35:02.601Z,71.40
2023-04-16T04:37:29.157Z,70.64
2023-04-16T04:39:55.669Z,72.56
2023-04-16T04:42:22.157Z,71.32
2023-04-16T04:44:48.541Z,71.64
2023-04-16T04:47:16.306Z,71.31
2023-04-16T04:49:42.711Z,72.77
2023-04-16T04:52:09.153Z,72.80
2023-04-16T04:54:35.704Z,71.90
2023-04-16T04:57:02.075Z,71.98
2023-04-16T04:59:28.505Z,74.12
2023-04-16T05:01:54.921Z,74.17
2023-04-16T05:04:22.624Z,72.47
2023-04-16T05:06:48.981Z,71.80
2023-04-16T05:09:15.389Z,73.93
2023-04-16T05:11:42.034Z,74.22
2023-04-16T05:14:08.619Z,71.80
2023-04-16T05:16:36.761Z,73.17
2023-04-16T05:19:03.623Z,72.56
2023-04-16T05:21:31.414Z,72.20
2023-04-16T05:23:58.662Z,72.28
2023-04-16T05:26:25.034Z,73.21
2023-04-16T05:28:51.409Z,71.76
2023-04-16T05:31:18.014Z,71.60
2023-04-16T05:33:44.400Z,71.12
2023-04-16T05:36:10.836Z,70.81
2023-04-16T05:38:38.550Z,71.19
2023-04-16T05:41:05.218Z,72.38
2023-04-16T05:43:31.614Z,71.30
2023-04-16T05:45:58.080Z,71.32
2023-04-16T05:48:24.561Z,70.62
2023-04-16T05:50:50.929Z,73.69
2023-04-16T05:53:17.294Z,71.30
2023-04-16T05:55:44.962Z,69.39
2023-04-16T05:58:11.312Z,70.89
2023-04-16T06:00:37.975Z,71.92
2023-04-16T06:03:04.668Z,70.24
2023-04-16T06:05:31.180Z,69.13
2023-04-16T06:07:57.623Z,70.54
2023-04-16T06:10:24.098Z,71.18
2023-04-16T06:12:51.785Z,70.67
2023-04-16T06:15:19.482Z,69.43
2023-04-16T06:17:45.863Z,69.82
2023-04-16T06:20:12.956Z,71.68
2023-04-16T06:22:39.422Z,71.64
2023-04-16T06:25:06.817Z,69.65
2023-04-16T06:27:33.187Z,68.76
2023-04-16T06:30:00.954Z,68.85
2023-04-16T06:32:27.626Z,68.38
2023-04-16T06:34:54.126Z,67.91
2023-04-16T06:37:20.523Z,69.44
2023-04-16T06:39:46.914Z,68.40
2023-04-16T06:42:13.394Z,66.77
2023-04-16T06:44:39.824Z,66.79
2023-04-16T06:47:08.041Z,66.77
2023-04-16T06:49:34.919Z,66.08
2023-04-16T06:52:02.435Z,66.03
2023-04-16T06:54:30.418Z,66.06
2023-04-16T06:56:56.823Z,66.47
2023-04-16T06:59:23.301Z,64.96
2023-04-16T07:01:49.731Z,65.63
2023-04-16T07:04:17.513Z,66.90
2023-04-16T07:06:44.245Z,65.73
2023-04-16T07:09:10.793Z,65.25
2023-04-16T07:11:37.832Z,65.71
2023-04-16T07:14:04.813Z,65.29
2023-04-16T07:16:31.282Z,64.66
2023-04-16T07:18:57.697Z,64.14
2023-04-16T07:21:25.578Z,64.64
2023-04-16T07:23:51.968Z,64.42
2023-04-16T07:26:18.342Z,63.96
2023-04-16T07:28:45.245Z,65.73
2023-04-16T07:31:11.826Z,65.59
2023-04-16T07:33:40.043Z,65.15
2023-04-16T07:36:07.083Z,64.17
2023-04-16T07:38:34.909Z,63.63
2023-04-16T07:41:01.705Z,63.43
2023-04-16T07:43:28.160Z,63.40
2023-04-16T07:45:54.569Z,62.14
2023-04-16T07:48:21.574Z,63.10
2023-04-16T07:50:48.104Z,61.96
2023-04-16T07:53:14.452Z,62.98
2023-04-16T07:55:42.138Z,63.43
2023-04-16T07:58:08.671Z,63.96
2023-04-16T08:00:35.344Z,63.71
2023-04-16T08:03:02.020Z,62.47
2023-04-16T08:05:28.603Z,62.26
2023-04-16T08:07:55.006Z,61.87
2023-04-16T08:10:21.422Z,62.75
2023-04-16T08:12:49.177Z,63.28
2023-04-16T08:15:15.600Z,62.58
2023-04-16T08:17:41.990Z,64.57
2023-04-16T08:20:09.568Z,62.79
2023-04-16T08:22:37.030Z,62.74
2023-04-16T08:25:03.836Z,61.65
2023-04-16T08:27:30.330Z,62.58
2023-04-16T08:29:58.035Z,63.28
2023-04-16T08:32:24.443Z,62.41
2023-04-16T08:34:50.909Z,62.95
2023-04-16T08:37:17.283Z,64.17
2023-04-16T08:39:43.655Z,62.99
2023-04-16T08:42:14.141Z,61.60
2023-04-16T08:44:49.006Z,60.78
2023-04-16T08:47:17.834Z,62.18
2023-04-16T08:49:45.244Z,63.16
2023-04-16T08:52:16.350Z,62.17
2023-04-16T08:54:56.338Z,61.84
2023-04-16T08:57:26.700Z,61.47
2023-04-16T08:59:55.702Z,61.57
2023-04-16T09:02:26.334Z,61.85
2023-04-16T09:04:53.635Z,61.38
2023-04-16T09:07:21.740Z,63.31
2023-04-16T09:09:48.687Z,62.05
2023-04-16T09:12:15.387Z,63.43
2023-04-16T09:14:41.987Z,62.33
2023-04-16T09:17:09.594Z,62.73
2023-04-16T09:19:37.453Z,63.27
2023-04-16T09:22:03.907Z,63.00
2023-04-16T09:24:31.151Z,64.01
2023-04-16T09:26:57.946Z,63.53
2023-04-16T09:29:34.403Z,63.82
2023-04-16T09:32:05.740Z,63.70
2023-04-16T09:34:32.838Z,63.79
2023-04-16T09:40:00.455Z,63.53
2023-04-16T09:42:28.541Z,63.11
2023-04-16T09:44:57.837Z,63.14
2023-04-16T09:47:38.132Z,65.47
2023-04-16T09:50:05.486Z,63.68
2023-04-16T09:52:31.843Z,64.49
2023-04-16T09:54:59.942Z,64.03
2023-04-16T09:57:26.346Z,64.29
2023-04-16T09:59:53.811Z,64.27
2023-04-16T10:02:20.396Z,65.72
2023-04-16T10:04:48.356Z,64.35
2023-04-16T10:07:14.964Z,64.86
2023-04-16T10:09:41.351Z,65.80
2023-04-16T10:12:09.772Z,67.11
2023-04-16T10:14:36.443Z,68.23
2023-04-16T10:17:04.351Z,67.10
2023-04-16T10:19:32.122Z,66.88
2023-04-16T10:21:58.798Z,69.38
2023-04-16T10:24:25.926Z,68.50
2023-04-16T10:26:52.874Z,68.62
2023-04-16T10:29:21.844Z,69.22
2023-04-16T10:31:49.414Z,69.63
2023-04-16T10:34:16.793Z,71.19
2023-04-16T10:36:43.348Z,71.96
2023-04-16T10:39:11.424Z,71.22
2023-04-16T10:41:38.934Z,70.74
2023-04-16T10:44:06.804Z,71.63
2023-04-16T10:46:37.541Z,72.23
2023-04-16T10:49:16.664Z,71.42
2023-04-16T10:51:52.894Z,71.89
2023-04-16T10:54:23.234Z,73.20
2023-04-16T10:56:50.298Z,73.47
2023-04-16T10:59:19.112Z,72.52
2023-04-16T11:01:48.405Z,71.41
2023-04-16T11:04:29.737Z,69.95
2023-04-16T11:07:04.185Z,69.90
2023-04-16T11:09:45.315Z,70.97
2023-04-16T11:12:13.205Z,71.51
2023-04-16T11:14:40.482Z,69.52
2023-04-16T11:17:08.807Z,69.77
2023-04-16T11:19:35.887Z,69.92
2023-04-16T11:22:02.487Z,70.74
2023-04-16T11:24:29.657Z,70.82
2023-04-16T11:26:56.466Z,70.65
2023-04-16T11:29:22.903Z,72.90
2023-04-16T11:31:50.720Z,73.43
2023-04-16T11:34:19.053Z,71.53
2023-04-16T11:36:45.775Z,71.77
2023-04-16T11:39:12.721Z,72.90
2023-04-16T11:41:42.747Z,73.41
2023-04-16T11:44:17.623Z,74.76
2023-04-16T11:46:44.338Z,74.98
2023-04-16T11:49:10.931Z,72.12
2023-04-16T11:51:42.239Z,73.90
2023-04-16T11:54:11.661Z,72.85
2023-04-16T11:56:38.625Z,73.28
2023-04-16T11:59:10.343Z,72.26
2023-04-16T12:01:38.022Z,73.22
2023-04-16T12:04:04.708Z,72.63
2023-04-16T12:06:31.727Z,71.00
2023-04-16T12:08:59.713Z,70.89
2023-04-16T12:11:39.370Z,70.50
2023-04-16T12:14:09.959Z,69.38
2023-04-16T12:16:36.461Z,68.57
2023-04-16T12:19:03.852Z,67.88
2023-04-16T12:21:38.085Z,67.59
2023-04-16T12:24:08.081Z,68.29
2023-04-16T12:26:39.682Z,67.14
2023-04-16T12:29:20.141Z,67.31
2023-04-16T12:31:46.945Z,69.57
2023-04-16T12:34:22.119Z,69.39
2023-04-16T12:37:06.840Z,69.06
2023-04-16T12:39:34.585Z,69.17
2023-04-16T12:42:01.054Z,68.31
2023-04-16T12:44:27.555Z,69.47
2023-04-16T12:46:53.922Z,68.21
2023-04-16T12:49:20.318Z,67.43
2023-04-16T12:51:46.802Z,67.87
2023-04-16T12:54:13.248Z,65.99
2023-04-16T12:56:40.922Z,63.17
2023-04-16T12:59:10.640Z,65.17
2023-04-16T13:01:37.380Z,64.02
2023-04-16T13:04:03.984Z,65.83
2023-04-16T13:06:30.855Z,63.59
2023-04-16T13:08:57.368Z,64.91
2023-04-16T13:11:23.772Z,67.39
2023-04-16T13:13:51.542Z,63.48
2023-04-16T13:16:17.965Z,61.97
2023-04-16T13:18:44.345Z,60.88
2023-04-16T13:21:10.888Z,58.96
2023-04-16T13:23:37.377Z,58.38
2023-04-16T13:26:03.754Z,57.55
2023-04-16T13:28:30.207Z,61.47
2023-04-16T13:30:58.097Z,58.17
2023-04-16T13:33:24.480Z,58.50
2023-04-16T13:35:50.829Z,57.93
2023-04-16T13:38:17.555Z,58.22
2023-04-16T13:40:43.976Z,55.54
2023-04-16T13:43:10.349Z,53.59
2023-04-16T13:45:37.460Z,56.76
2023-04-16T13:48:05.570Z,56.06
2023-04-16T13:50:31.958Z,55.41
2023-04-16T13:52:58.330Z,55.97
2023-04-16T13:55:24.852Z,54.60
2023-04-16T13:57:51.266Z,55.17
2023-04-16T14:00:18.150Z,54.07
2023-04-16T14:02:44.666Z,53.19
2023-04-16T14:05:12.444Z,56.07
2023-04-16T14:07:38.835Z,56.10
2023-04-16T14:10:06.074Z,54.69
2023-04-16T14:12:32.554Z,53.75
2023-04-16T14:14:58.982Z,57.70
2023-04-16T14:17:25.414Z,57.65
2023-04-16T14:19:51.842Z,58.59
2023-04-16T14:22:19.748Z,57.70
2023-04-16T14:24:46.320Z,57.19
2023-04-16T14:27:12.664Z,57.93
2023-04-16T14:29:39.139Z,57.14
2023-04-16T14:32:06.054Z,56.59
2023-04-16T14:34:32.579Z,57.05
2023-04-16T14:36:59.042Z,55.21
2023-04-16T14:39:26.766Z,54.38
2023-04-16T14:41:53.209Z,54.73
2023-04-16T14:44:19.599Z,54.88
2023-04-16T14:46:45.960Z,55.41
2023-04-16T14:49:12.605Z,56.25
2023-04-16T14:51:39.135Z,55.20
2023-04-16T14:54:05.645Z,54.39
2023-04-16T14:56:33.438Z,54.74
2023-04-16T14:58:59.904Z,57.08
2023-04-16T15:01:26.341Z,56.96
2023-04-16T15:03:52.932Z,57.81
2023-04-16T15:06:19.508Z,57.40
2023-04-16T15:08:45.885Z,57.07
2023-04-16T15:11:12.361Z,56.37
2023-04-16T15:13:40.178Z,57.16
2023-04-16T15:16:06.555Z,59.37
2023-04-16T15:18:33.315Z,58.35
2023-04-16T15:20:59.760Z,56.67
2023-04-16T15:23:26.313Z,56.53
2023-04-16T15:25:52.673Z,57.98
2023-04-16T15:28:19.155Z,58.29
2023-04-16T15:30:46.952Z,57.46
2023-04-16T15:33:13.350Z,57.24
2023-04-16T15:35:39.791Z,57.97
2023-04-16T15:38:06.201Z,57.86
2023-04-16T15:40:32.561Z,55.83
2023-04-16T15:42:59.117Z,56.33
2023-04-16T15:45:25.616Z,56.17
2023-04-16T15:47:53.857Z,56.43
2023-04-16T15:50:20.494Z,56.04
2023-04-16T15:52:47.375Z,56.39
2023-04-16T15:55:14.521Z,57.39
2023-04-16T15:57:40.958Z,58.28
2023-04-16T16:00:09.482Z,57.03
2023-04-16T16:02:37.196Z,55.72
2023-04-16T16:05:05.866Z,57.41
2023-04-16T16:07:32.245Z,58.62
2023-04-16T16:09:58.715Z,57.46
2023-04-16T16:12:25.246Z,56.37
2023-04-16T16:14:51.602Z,55.16
2023-04-16T16:17:17.970Z,55.31
2023-04-16T16:19:46.310Z,54.48
2023-04-16T16:22:14.290Z,54.07
2023-04-16T16:24:40.652Z,54.11
2023-04-16T16:27:07.057Z,55.04
2023-04-16T16:29:33.445Z,55.16
2023-04-16T16:31:59.974Z,56.39
2023-04-16T16:34:26.685Z,55.53
2023-04-16T16:36:53.058Z,55.20
2023-04-16T16:39:20.772Z,56.39
2023-04-16T16:41:47.125Z,55.92
2023-04-16T16:44:13.475Z,56.01
2023-04-16T16:46:39.879Z,56.63
2023-04-16T16:49:06.283Z,60.78
2023-04-16T16:51:33.190Z,59.55
2023-04-16T16:53:59.578Z,58.14
2023-04-16T16:56:27.294Z,57.97
2023-04-16T16:58:53.658Z,60.01
2023-04-16T17:01:20.079Z,59.69
2023-04-16T17:03:46.565Z,60.57
2023-04-16T17:06:13.061Z,60.10
2023-04-16T17:08:39.438Z,59.62
2023-04-16T17:11:05.811Z,59.82
2023-04-16T17:13:33.541Z,59.34
2023-04-16T17:15:59.928Z,60.34
2023-04-16T17:18:26.363Z,59.40
2023-04-16T17:20:52.758Z,59.18
2023-04-16T17:23:19.212Z,60.55
2023-04-16T17:25:45.824Z,60.59
2023-04-16T17:28:12.182Z,60.16
2023-04-16T17:30:39.883Z,60.67
2023-04-16T17:33:06.390Z,60.29
2023-04-16T17:35:33.010Z,60.62
2023-04-16T17:37:59.413Z,60.61
2023-04-16T17:40:25.827Z,60.93
2023-04-16T17:42:52.230Z,61.66
2023-04-16T17:45:19.003Z,60.19
2023-04-16T17:47:46.744Z,61.13
2023-04-16T17:50:13.252Z,59.89
2023-04-16T17:52:39.617Z,59.73
2023-04-16T17:55:06.899Z,59.81
2023-04-16T17:57:33.286Z,59.76
2023-04-16T17:59:59.668Z,59.14
2023-04-16T18:02:26.228Z,58.91
2023-04-16T18:04:54.142Z,60.61
2023-04-16T18:07:20.662Z,60.00
2023-04-16T18:09:47.013Z,59.99
2023-04-16T18:12:13.521Z,60.17
2023-04-16T18:14:39.888Z,62.16
2023-04-16T18:17:06.791Z,62.22
2023-04-16T18:19:33.230Z,61.29
2023-04-16T18:22:00.924Z,62.73
2023-04-16T18:24:27.295Z,60.98
2023-04-16T18:26:55.346Z,62.18
2023-04-16T18:29:24.812Z,62.27
2023-04-16T18:31:52.793Z,62.38
2023-04-16T18:34:19.394Z,61.97
2023-04-16T18:36:45.931Z,62.27
2023-04-16T18:39:13.696Z,61.72
2023-04-16T18:41:40.177Z,62.46
2023-04-16T18:44:06.543Z,61.99
2023-04-16T18:46:33.007Z,62.53
2023-04-16T18:48:59.453Z,62.76
2023-04-16T18:51:25.809Z,62.49
2023-04-16T18:53:52.173Z,62.71
2023-04-16T18:56:19.946Z,64.49
2023-04-16T18:58:46.354Z,64.24
2023-04-16T19:01:12.844Z,63.72
2023-04-16T19:03:39.646Z,64.53
2023-04-16T19:06:06.300Z,65.27
2023-04-16T19:08:32.775Z,65.07
2023-04-16T19:10:59.290Z,64.57
2023-04-16T19:13:27.114Z,66.78
2023-04-16T19:15:57.592Z,65.01
2023-04-16T19:18:24.064Z,65.39
2023-04-16T19:20:50.439Z,65.74
2023-04-16T19:23:16.817Z,65.68
2023-04-16T19:25:43.303Z,65.47
2023-04-16T19:28:09.665Z,65.49
2023-04-16T19:30:37.437Z,65.43
2023-04-16T19:33:04.127Z,66.37
2023-04-16T19:35:30.525Z,66.47
2023-04-16T19:37:56.943Z,66.14
2023-04-16T19:40:23.318Z,65.99
2023-04-16T19:42:49.699Z,65.92
2023-04-16T19:45:16.291Z,66.11
2023-04-16T19:47:44.225Z,66.10
2023-04-16T19:50:11.103Z,65.10
2023-04-16T19:52:37.580Z,65.48
2023-04-16T19:55:04.943Z,65.27
2023-04-16T19:57:31.325Z,65.34
2023-04-16T19:59:57.702Z,65.13
2023-04-16T20:02:24.294Z,65.08
2023-04-16T20:04:52.176Z,64.29
2023-04-16T20:07:18.569Z,64.84
2023-04-16T20:09:44.956Z,65.03
2023-04-16T20:12:11.375Z,66.07
2023-04-16T20:14:37.812Z,64.66
2023-04-16T20:17:04.253Z,63.48
2023-04-16T20:19:30.619Z,64.32
2023-04-16T20:21:58.314Z,64.90
2023-04-16T20:24:24.701Z,65.23
2023-04-16T20:26:51.074Z,65.97
2023-04-16T20:29:17.467Z,64.76
2023-04-16T20:31:43.848Z,64.07
2023-04-16T20:34:10.193Z,63.87
2023-04-16T20:36:36.590Z,63.78
2023-04-16T20:39:04.285Z,63.24
2023-04-16T20:41:30.623Z,65.70
2023-04-16T20:43:57.139Z,64.59
2023-04-16T20:46:23.867Z,64.46
2023-04-16T20:48:50.413Z,64.17
2023-04-16T20:51:16.883Z,64.72
2023-04-16T20:53:43.237Z,64.04
2023-04-16T20:56:10.949Z,64.52
2023-04-16T20:58:37.462Z,64.61
2023-04-16T21:01:03.813Z,64.55
2023-04-16T21:03:30.354Z,65.22
2023-04-16T21:05:56.911Z,67.28
2023-04-16T21:08:23.952Z,65.31
2023-04-16T21:10:50.485Z,65.39
2023-04-16T21:13:18.629Z,64.98
2023-04-16T21:15:45.126Z,66.39
2023-04-16T21:18:11.978Z,65.26
2023-04-16T21:20:39.106Z,64.62
2023-04-16T21:23:06.903Z,65.00
2023-04-16T21:25:33.293Z,66.67
2023-04-16T21:27:59.752Z,66.07
2023-04-16T21:30:27.432Z,65.26
2023-04-16T21:32:53.850Z,64.91
2023-04-16T21:35:20.304Z,65.20
2023-04-16T21:37:46.740Z,65.71
2023-04-16T21:40:13.464Z,65.79
2023-04-16T21:42:39.882Z,65.23
2023-04-16T21:45:08.223Z,64.33
2023-04-16T21:47:36.035Z,65.66
2023-04-16T21:50:02.620Z,65.20
2023-04-16T21:52:28.985Z,65.30
2023-04-16T21:54:55.377Z,65.86
2023-04-16T21:57:21.722Z,66.30
2023-04-16T21:59:48.064Z,66.26
2023-04-16T22:02:14.603Z,66.43
2023-04-16T22:04:42.398Z,66.08
2023-04-16T22:07:09.248Z,66.90
2023-04-16T22:09:35.820Z,66.28
2023-04-16T22:12:02.238Z,66.99
2023-04-16T22:14:28.730Z,66.67
2023-04-16T22:16:55.334Z,66.04
2023-04-16T22:19:21.889Z,66.50
2023-04-16T22:21:49.673Z,66.82
2023-04-16T22:24:16.103Z,65.78
2023-04-16T22:26:42.519Z,66.31
2023-04-16T22:29:09.011Z,65.93
2023-04-16T22:31:35.538Z,65.63
2023-04-16T22:34:03.503Z,66.20
2023-04-16T22:36:30.115Z,66.51
2023-04-16T22:38:57.945Z,66.26
2023-04-16T22:41:24.392Z,65.87
2023-04-16T22:43:52.467Z,66.63
2023-04-16T22:46:19.111Z,65.91
2023-04-16T22:48:45.617Z,66.63
2023-04-16T22:51:12.010Z,65.66
2023-04-16T22:53:38.433Z,66.70
2023-04-16T22:56:07.172Z,65.63
2023-04-16T22:58:33.638Z,66.68
2023-04-16T23:01:00.209Z,65.67
2023-04-16T23:03:26.856Z,64.85
2023-04-16T23:05:53.432Z,65.46
2023-04-16T23:08:19.879Z,66.88
2023-04-16T23:10:46.336Z,65.99
2023-04-16T23:13:14.392Z,65.12
2023-04-16T23:15:40.842Z,65.14
2023-04-16T23:18:07.507Z,65.56
2023-04-16T23:20:34.104Z,65.51
2023-04-16T23:23:00.467Z,67.10
2023-04-16T23:25:26.993Z,67.59
2023-04-16T23:27:53.372Z,66.56
2023-04-16T23:30:21.768Z,65.90
2023-04-16T23:32:48.227Z,65.86
2023-04-16T23:35:14.702Z,65.13
2023-04-16T23:37:41.075Z,65.37
2023-04-16T23:40:08.720Z,65.31
2023-04-16T23:42:35.112Z,65.34
2023-04-16T23:45:01.458Z,65.07
2023-04-16T23:47:29.166Z,65.83
2023-04-16T23:49:55.552Z,65.43
2023-04-16T23:52:21.938Z,65.66
2023-04-16T23:54:48.319Z,67.03
2023-04-16T23:57:14.728Z,66.91
2023-04-16T23:59:41.094Z,66.86
